Time;durP1;ratioP1;P1;durP2;ratioP2;P2;SDS_P1;SDS_P2;PMS_P1;PMS_P2;Temp;Humidity;BMP_temperature;BMP_pressure;BME280_temperature;BME280_humidity;BME280_pressure;Samples;Min_cycle;Max_cycle;Signal;HPM_P1;HPM_P2
2023/04/10 00:01:18;;;;;;;1999.90;999.90;;;10.10;99.90;;;;;;4992954;28;20474;-70
2023/04/10 00:03:44;;;;;;;1999.90;999.90;;;10.00;99.90;;;;;;4993131;28;20189;-70
2023/04/10 00:06:10;;;;;;;1999.90;999.90;;;10.10;99.90;;;;;;4993227;28;20192;-70
2023/04/10 00:08:35;;;;;;;1999.90;999.90;;;10.00;99.90;;;;;;4993157;28;20174;-70
2023/04/10 00:11:01;;;;;;;1999.90;999.90;;;10.00;99.90;;;;;;4992864;28;20177;-70
2023/04/10 00:13:27;;;;;;;1999.90;999.90;;;10.00;99.90;;;;;;4993056;28;20185;-70
2023/04/10 00:15:53;;;;;;;1999.90;999.90;;;10.00;99.90;;;;;;4992967;28;20459;-69
2023/04/10 00:18:18;;;;;;;1999.90;999.90;;;10.00;99.90;;;;;;4993086;28;20539;-70
2023/04/10 00:20:44;;;;;;;1999.90;999.90;;;10.00;99.90;;;;;;4993017;28;20170;-69
2023/04/10 00:23:09;;;;;;;1999.90;999.90;;;9.90;99.90;;;;;;4992457;28;20579;-69
2023/04/10 00:25:35;;;;;;;1999.90;999.90;;;10.00;99.90;;;;;;4992964;28;20174;-69
2023/04/10 00:28:01;;;;;;;1999.90;999.90;;;10.10;99.90;;;;;;4992914;28;20208;-70
2023/04/10 00:30:26;;;;;;;1999.90;999.90;;;10.00;99.90;;;;;;4992943;28;20178;-70
2023/04/10 00:32:52;;;;;;;1999.90;999.90;;;10.00;99.90;;;;;;4992469;28;20557;-70
2023/04/10 00:35:17;;;;;;;1999.90;999.90;;;10.00;99.90;;;;;;4992749;28;20198;-70
2023/04/10 00:37:43;;;;;;;1999.90;999.90;;;9.90;99.90;;;;;;4992656;28;20166;-70
2023/04/10 00:40:09;;;;;;;1999.90;999.90;;;9.90;99.90;;;;;;4992812;28;20178;-69
2023/04/10 00:42:34;;;;;;;1999.90;999.90;;;9.90;99.90;;;;;;4992397;28;20689;-70
2023/04/10 00:45:00;;;;;;;1999.90;999.90;;;9.80;99.90;;;;;;4992662;28;20539;-70
2023/04/10 00:47:26;;;;;;;1999.90;999.90;;;9.80;99.90;;;;;;4992657;28;20631;-70
2023/04/10 00:49:52;;;;;;;1999.90;999.90;;;9.80;99.90;;;;;;4992601;28;20316;-70
2023/04/10 00:52:19;;;;;;;1999.90;999.90;;;9.90;99.90;;;;;;4991678;28;20425;-70
2023/04/10 00:54:45;;;;;;;1999.90;999.90;;;9.80;99.90;;;;;;4992600;28;20895;-70
2023/04/10 00:57:11;;;;;;;1999.90;999.90;;;9.80;99.90;;;;;;4992488;28;20459;-69
2023/04/10 00:59:36;;;;;;;1999.90;999.90;;;9.70;99.90;;;;;;4992559;28;20470;-69
2023/04/10 01:02:02;;;;;;;1999.90;999.90;;;9.60;99.90;;;;;;4992169;28;20460;-70
2023/04/10 01:04:30;;;;;;;1999.90;999.90;;;9.50;99.90;;;;;;4992432;28;20170;-70
2023/04/10 01:07:02;;;;;;;1999.90;999.90;;;9.50;99.90;;;;;;4992371;28;20416;-70
2023/04/10 01:09:53;;;;;;;1999.90;999.90;;;9.40;99.90;;;;;;4992433;28;20479;-69
2023/04/10 01:12:34;;;;;;;1999.90;999.90;;;9.30;99.90;;;;;;4992117;28;20432;-69
2023/04/10 01:15:05;;;;;;;1999.90;999.90;;;9.30;99.90;;;;;;4992381;28;20578;-69
2023/04/10 01:17:35;;;;;;;1999.90;999.90;;;9.30;99.90;;;;;;4992377;28;20411;-69
2023/04/10 01:20:15;;;;;;;1999.90;999.90;;;9.20;99.90;;;;;;4992582;28;20408;-70
2023/04/10 01:22:56;;;;;;;1999.90;999.90;;;9.20;99.90;;;;;;4991987;28;20964;-70
2023/04/10 01:25:51;;;;;;;1999.90;999.90;;;9.10;99.90;;;;;;4992372;28;20788;-69
2023/04/10 01:28:29;;;;;;;1999.90;999.90;;;9.00;99.90;;;;;;4992353;28;20405;-69
2023/04/10 01:30:59;;;;;;;1999.90;999.90;;;8.90;99.90;;;;;;4992001;28;20474;-70
2023/04/10 01:33:45;;;;;;;1999.90;999.90;;;8.90;99.90;;;;;;4992056;28;20475;-70
2023/04/10 01:36:12;;;;;;;1999.90;999.90;;;8.90;99.90;;;;;;4992134;28;20972;-69
2023/04/10 01:38:42;;;;;;;1999.90;999.90;;;8.60;99.90;;;;;;4992161;28;20408;-70
2023/04/10 01:41:08;;;;;;;1999.90;999.90;;;8.50;99.90;;;;;;4992010;28;20408;-69
2023/04/10 01:43:34;;;;;;;1999.90;999.90;;;8.50;99.90;;;;;;4992091;28;20479;-70
2023/04/10 01:46:02;;;;;;;1999.90;999.90;;;8.50;99.90;;;;;;4992229;28;20206;-70
2023/04/10 01:48:29;;;;;;;1999.90;999.90;;;8.50;99.90;;;;;;4992059;28;20411;-70
2023/04/10 01:50:55;;;;;;;1999.90;999.90;;;8.40;99.90;;;;;;4991870;28;20419;-69
2023/04/10 01:53:21;;;;;;;1999.90;999.90;;;8.40;99.90;;;;;;4991984;28;20425;-69
2023/04/10 01:55:47;;;;;;;1999.90;999.90;;;8.30;99.90;;;;;;4991950;28;20806;-69
2023/04/10 01:58:14;;;;;;;1999.90;999.90;;;8.30;99.90;;;;;;4992007;28;21049;-70
2023/04/10 02:00:41;;;;;;;1999.90;999.90;;;8.40;99.90;;;;;;4991995;28;20412;-70
2023/04/10 02:03:08;;;;;;;1999.90;999.90;;;8.40;99.90;;;;;;4992283;28;21015;-70
2023/04/10 02:06:16;;;;;;;1999.90;999.90;;;8.30;99.90;;;;;;4995490;28;20414;-70
2023/04/10 02:08:56;;;;;;;1999.90;999.90;;;8.30;99.90;;;;;;4935196;29;20425;-71
2023/04/10 02:11:37;;;;;;;1999.90;999.90;;;8.20;99.90;;;;;;4988415;28;20429;-70
2023/04/10 02:14:09;;;;;;;1999.90;999.90;;;8.20;99.90;;;;;;4995304;28;20435;-70
2023/04/10 02:16:37;;;;;;;1999.90;999.90;;;8.20;99.90;;;;;;4995239;28;20455;-70
2023/04/10 02:19:04;;;;;;;1999.90;999.90;;;8.20;99.90;;;;;;4995327;28;20494;-70
2023/04/10 02:21:32;;;;;;;1999.90;999.90;;;8.20;99.90;;;;;;4994835;28;20504;-69
2023/04/10 02:23:58;;;;;;;1999.90;999.90;;;8.10;99.90;;;;;;4994889;28;20461;-70
2023/04/10 02:26:24;;;;;;;1999.90;999.90;;;8.00;99.90;;;;;;4995307;28;20413;-70
2023/04/10 02:28:49;;;;;;;1999.90;999.90;;;8.00;99.90;;;;;;4995178;28;20178;-71
2023/04/10 02:31:15;;;;;;;1999.90;999.90;;;8.00;99.90;;;;;;4994676;28;20177;-70
2023/04/10 02:33:40;;;;;;;1999.90;999.90;;;8.00;99.90;;;;;;4994889;28;20194;-70
2023/04/10 02:36:06;;;;;;;1999.90;999.90;;;8.00;99.90;;;;;;4994897;28;20628;-70
2023/04/10 02:38:32;;;;;;;1999.90;999.90;;;8.00;99.90;;;;;;4994878;28;20170;-70
2023/04/10 02:40:58;;;;;;;1999.90;999.90;;;8.00;99.90;;;;;;4994525;28;20418;-68
2023/04/10 02:43:23;;;;;;;1999.90;999.90;;;8.00;99.90;;;;;;4994734;28;20198;-70
2023/04/10 02:45:49;;;;;;;1999.90;999.90;;;8.00;99.90;;;;;;4994652;28;20176;-70
2023/04/10 02:48:15;;;;;;;1999.90;999.90;;;8.00;99.90;;;;;;4994857;28;20177;-70
2023/04/10 02:50:44;;;;;;;1999.90;999.90;;;8.00;99.90;;;;;;4994580;28;20271;-73
2023/04/10 02:53:14;;;;;;;1999.90;999.90;;;8.00;99.90;;;;;;4994155;28;20447;-71
2023/04/10 02:55:40;;;;;;;1999.90;999.90;;;7.90;99.90;;;;;;4994386;28;20459;-71
2023/04/10 02:58:06;;;;;;;1999.90;999.90;;;7.90;99.90;;;;;;4994473;28;20420;-71
2023/04/10 03:00:32;;;;;;;1999.90;999.90;;;7.90;99.90;;;;;;4994439;28;20399;-71
2023/04/10 03:02:58;;;;;;;1999.90;999.90;;;7.90;99.90;;;;;;4994113;28;20530;-71
2023/04/10 03:05:23;;;;;;;1999.90;999.90;;;7.90;99.90;;;;;;4994419;28;20645;-70
2023/04/10 03:07:49;;;;;;;1999.90;999.90;;;7.80;99.90;;;;;;4994273;28;20178;-71
2023/04/10 03:10:14;;;;;;;1999.90;999.90;;;7.90;99.90;;;;;;4994315;28;20725;-71
2023/04/10 03:12:40;;;;;;;1999.90;999.90;;;7.80;99.90;;;;;;4993863;28;20205;-71
2023/04/10 03:15:06;;;;;;;1999.90;999.90;;;8.10;99.90;;;;;;4993602;28;20211;-70
2023/04/10 03:17:32;;;;;;;1999.90;999.90;;;7.70;99.90;;;;;;4994331;28;20173;-70
2023/04/10 03:19:57;;;;;;;1999.90;999.90;;;7.70;99.90;;;;;;4994063;28;20459;-70
2023/04/10 03:22:23;;;;;;;1999.90;999.90;;;7.60;99.90;;;;;;4993540;28;20258;-71
2023/04/10 03:24:48;;;;;;;1999.90;999.90;;;7.40;99.90;;;;;;4994335;28;20224;-71
2023/04/10 03:27:15;;;;;;;1999.90;999.90;;;7.40;99.90;;;;;;4993923;28;20209;-70
2023/04/10 03:29:40;;;;;;;1999.90;999.90;;;7.40;99.90;;;;;;4993924;28;20179;-71
2023/04/10 03:32:06;;;;;;;1999.90;999.90;;;7.40;99.90;;;;;;4993489;28;20419;-71
2023/04/10 03:34:31;;;;;;;1999.90;999.90;;;7.30;99.90;;;;;;4993895;28;20181;-71
2023/04/10 03:36:57;;;;;;;1999.90;999.90;;;7.20;99.90;;;;;;4993666;28;20193;-71
2023/04/10 03:39:23;;;;;;;1999.90;999.90;;;7.20;99.90;;;;;;4993700;28;20627;-71
2023/04/10 03:41:49;;;;;;;1999.90;999.90;;;7.10;99.90;;;;;;4993345;28;20658;-71
2023/04/10 03:44:14;;;;;;;1999.90;999.90;;;7.10;99.90;;;;;;4993519;28;20519;-71
2023/04/10 03:46:40;;;;;;;1999.90;999.90;;;7.10;99.90;;;;;;4993689;28;20178;-70
2023/04/10 03:49:05;;;;;;;1999.90;999.90;;;7.10;99.90;;;;;;4993534;28;20197;-71
2023/04/10 03:51:31;;;;;;;1999.90;999.90;;;7.10;99.90;;;;;;4993212;28;20573;-71
2023/04/10 03:53:57;;;;;;;1999.90;999.90;;;7.10;99.90;;;;;;4993348;28;20288;-71
2023/04/10 03:56:22;;;;;;;1999.90;999.90;;;7.00;99.90;;;;;;4993520;28;20233;-70
2023/04/10 03:58:48;;;;;;;1999.90;999.90;;;7.00;99.90;;;;;;4993508;28;20189;-72
2023/04/10 04:01:14;;;;;;;1999.90;999.90;;;7.00;99.90;;;;;;4993022;28;20175;-71
2023/04/10 04:03:39;;;;;;;1999.90;999.90;;;7.00;99.90;;;;;;4993217;28;20213;-71
2023/04/10 04:06:05;;;;;;;1999.90;999.90;;;7.00;99.90;;;;;;4993184;28;20412;-71
2023/04/10 04:08:31;;;;;;;1999.90;999.90;;;6.90;99.90;;;;;;4993262;28;20181;-71
2023/04/10 04:10:56;;;;;;;1999.90;999.90;;;6.90;99.90;;;;;;4993024;28;20493;-71
2023/04/10 04:13:23;;;;;;;1999.90;999.90;;;6.90;99.90;;;;;;4993035;28;20256;-71
2023/04/10 04:15:48;;;;;;;1999.90;999.90;;;6.90;99.90;;;;;;4993005;28;20202;-71
2023/04/10 04:18:14;;;;;;;1999.90;999.90;;;6.90;99.90;;;;;;4992975;28;20778;-71
2023/04/10 04:20:39;;;;;;;1999.90;999.90;;;6.90;99.90;;;;;;4992890;28;20205;-70
2023/04/10 04:23:05;;;;;;;1999.90;999.90;;;6.90;99.90;;;;;;4993122;28;20207;-70
2023/04/10 04:25:31;;;;;;;1999.90;999.90;;;6.80;99.90;;;;;;4992492;28;20268;-71
2023/04/10 04:27:56;;;;;;;1999.90;999.90;;;6.90;99.90;;;;;;4992757;28;20667;-71
2023/04/10 04:30:22;;;;;;;1999.90;999.90;;;6.80;99.90;;;;;;4992909;28;20296;-71
2023/04/10 04:32:47;;;;;;;1999.90;999.90;;;6.80;99.90;;;;;;4992497;28;20690;-70
2023/04/10 04:35:13;;;;;;;1999.90;999.90;;;6.80;99.90;;;;;;4992681;28;20262;-71
2023/04/10 04:37:38;;;;;;;1999.90;999.90;;;6.80;99.90;;;;;;4993022;28;20185;-71
2023/04/10 04:40:04;;;;;;;1999.90;999.90;;;6.80;99.90;;;;;;4992747;28;20170;-71
2023/04/10 04:42:30;;;;;;;1999.90;999.90;;;6.70;99.90;;;;;;4992315;28;20190;-70
2023/04/10 04:44:56;;;;;;;1999.90;999.90;;;6.70;99.90;;;;;;4992785;28;20412;-71
2023/04/10 04:47:23;;;;;;;1999.90;999.90;;;6.60;99.90;;;;;;4992670;28;20655;-70
2023/04/10 04:49:48;;;;;;;1999.90;999.90;;;6.40;99.90;;;;;;4992545;28;20229;-70
2023/04/10 04:52:14;;;;;;;1999.90;999.90;;;6.40;99.90;;;;;;4992468;28;20947;-71
2023/04/10 04:54:40;;;;;;;1999.90;999.90;;;6.40;99.90;;;;;;4992758;28;20236;-70
2023/04/10 04:57:06;;;;;;;1999.90;999.90;;;6.40;99.90;;;;;;4992405;28;20240;-70
2023/04/10 04:59:32;;;;;;;1999.90;999.90;;;6.40;99.90;;;;;;4992485;28;20256;-70
2023/04/10 05:01:57;;;;;;;1999.90;999.90;;;6.10;99.90;;;;;;4992230;28;20413;-70
2023/04/10 05:04:23;;;;;;;1999.90;999.90;;;6.40;99.90;;;;;;4992648;28;20173;-70
2023/04/10 05:06:49;;;;;;;1999.90;999.90;;;6.40;99.90;;;;;;4992499;28;20172;-70
2023/04/10 05:09:15;;;;;;;1999.90;999.90;;;6.50;99.90;;;;;;4992446;28;20499;-70
2023/04/10 05:11:40;;;;;;;1999.90;999.90;;;6.50;99.90;;;;;;4992272;28;20720;-70
2023/04/10 05:14:06;;;;;;;1999.90;999.90;;;6.50;99.90;;;;;;4992400;28;20201;-70
2023/04/10 05:16:31;;;;;;;1999.90;999.90;;;6.40;99.90;;;;;;4992325;28;20205;-70
2023/04/10 05:18:57;;;;;;;1999.90;999.90;;;6.30;99.90;;;;;;4992381;28;20170;-70
2023/04/10 05:21:23;;;;;;;1999.90;999.90;;;6.30;99.90;;;;;;4992099;28;20624;-70
2023/04/10 05:23:48;;;;;;;1999.90;999.90;;;6.30;99.90;;;;;;4992233;28;20229;-70
2023/04/10 05:26:14;;;;;;;1999.90;999.90;;;6.30;99.90;;;;;;4992440;28;20655;-70
2023/04/10 05:28:39;;;;;;;1999.90;999.90;;;6.40;99.90;;;;;;4992293;28;20547;-70
2023/04/10 05:31:05;;;;;;;1999.90;999.90;;;6.50;99.90;;;;;;4991911;28;20174;-70
2023/04/10 05:33:31;;;;;;;1999.90;999.90;;;6.50;99.90;;;;;;4992155;28;20192;-71
2023/04/10 05:35:56;;;;;;;1999.90;999.90;;;6.70;99.90;;;;;;4992154;28;20462;-70
2023/04/10 05:38:23;;;;;;;1999.90;999.90;;;6.70;99.90;;;;;;4994988;28;20177;-70
2023/04/10 05:40:49;;;;;;;1999.90;999.90;;;6.80;99.90;;;;;;4995831;28;20162;-70
2023/04/10 05:43:14;;;;;;;1999.90;999.90;;;6.90;99.90;;;;;;4995599;28;20447;-70
2023/04/10 05:45:44;;;;;;;1999.90;999.90;;;7.00;99.90;;;;;;4995835;28;20172;-70
2023/04/10 05:48:09;;;;;;;1999.90;999.90;;;7.00;99.90;;;;;;4995771;28;20178;-70
2023/04/10 05:50:35;;;;;;;1999.90;999.90;;;7.10;99.90;;;;;;4995766;28;20421;-71
2023/04/10 05:53:00;;;;;;;1999.90;999.90;;;7.20;99.90;;;;;;4995543;28;20310;-71
2023/04/10 05:55:26;;;;;;;1999.90;999.90;;;7.20;99.90;;;;;;4995570;28;20763;-71
2023/04/10 05:57:52;;;;;;;1999.90;999.90;;;7.30;99.90;;;;;;4995624;28;20164;-70
2023/04/10 06:00:18;;;;;;;1999.90;999.90;;;7.40;99.90;;;;;;4995595;28;20174;-71
2023/04/10 06:02:44;;;;;;;1999.90;999.90;;;7.40;99.90;;;;;;4995153;28;20433;-72
2023/04/10 06:05:10;;;;;;;1999.90;999.90;;;7.40;99.90;;;;;;4995509;28;20428;-70
2023/04/10 06:07:36;;;;;;;1999.90;999.90;;;7.60;99.90;;;;;;4995676;28;20415;-70
2023/04/10 06:10:01;;;;;;;1999.90;999.90;;;7.60;99.90;;;;;;4995500;28;20166;-71
2023/04/10 06:12:27;;;;;;;1999.90;999.90;;;7.60;99.90;;;;;;4994968;28;20454;-70
2023/04/10 06:14:52;;;;;;;1999.90;999.90;;;7.70;99.90;;;;;;4995424;28;20173;-70
2023/04/10 06:17:20;;;;;;;1999.90;999.90;;;7.90;99.90;;;;;;4995139;28;20250;-71
2023/04/10 06:19:45;;;;;;;1999.90;999.90;;;8.00;99.90;;;;;;4995221;28;20180;-70
2023/04/10 06:22:11;;;;;;;1999.90;999.90;;;8.10;99.90;;;;;;4994666;28;20427;-71
2023/04/10 06:24:36;;;;;;;1999.90;999.90;;;8.20;99.90;;;;;;4995148;28;20174;-71
2023/04/10 06:27:02;;;;;;;1999.90;999.90;;;8.30;99.90;;;;;;4995131;28;20204;-70
2023/04/10 06:29:27;;;;;;;1999.90;999.90;;;8.50;99.90;;;;;;4995024;28;20666;-70
2023/04/10 06:31:53;;;;;;;1999.90;999.90;;;8.90;99.90;;;;;;4994599;28;20524;-70
2023/04/10 06:34:19;;;;;;;1999.90;999.90;;;8.80;99.90;;;;;;4994981;28;20686;-71
2023/04/10 06:36:44;;;;;;;1999.90;999.90;;;9.00;99.90;;;;;;4994970;28;20713;-71
2023/04/10 06:39:10;;;;;;;1999.90;999.90;;;9.10;99.90;;;;;;4994853;28;20181;-71
2023/04/10 06:41:36;;;;;;;1999.90;999.90;;;9.20;99.90;;;;;;4994519;28;20184;-71
2023/04/10 06:44:01;;;;;;;1999.90;999.90;;;9.50;99.90;;;;;;4994746;28;20196;-71
2023/04/10 06:46:27;;;;;;;1999.90;999.90;;;9.60;99.90;;;;;;4994719;28;20285;-70
2023/04/10 06:48:52;;;;;;;1999.90;999.90;;;9.70;99.90;;;;;;4993930;28;20173;-71
2023/04/10 06:51:18;;;;;;;1999.90;999.90;;;9.80;99.90;;;;;;4994355;28;20291;-72
2023/04/10 06:53:44;;;;;;;1999.90;999.90;;;10.10;99.90;;;;;;4994499;28;20198;-71
2023/04/10 06:56:09;;;;;;;1999.90;999.90;;;10.10;99.90;;;;;;4994572;28;20237;-71
2023/04/10 06:58:35;;;;;;;1999.90;999.90;;;10.20;99.90;;;;;;4994554;28;20686;-70
2023/04/10 07:01:03;;;;;;;1999.90;999.90;;;10.20;99.90;;;;;;4994118;28;20260;-70
2023/04/10 07:03:30;;;;;;;1999.90;999.90;;;10.50;99.90;;;;;;4994347;28;20192;-70
2023/04/10 07:05:56;;;;;;;1999.90;999.90;;;10.50;99.90;;;;;;4994482;28;20423;-71
2023/04/10 07:08:22;;;;;;;1999.90;999.90;;;10.60;99.90;;;;;;4994206;28;20415;-70
2023/04/10 07:10:47;;;;;;;1999.90;999.90;;;10.70;99.90;;;;;;4994226;28;20424;-71
2023/04/10 07:13:13;;;;;;;1999.90;999.90;;;10.70;99.90;;;;;;4993987;28;20189;-70
2023/04/10 07:15:39;;;;;;;1999.90;999.90;;;10.80;99.90;;;;;;4994137;28;20279;-71
2023/04/10 07:18:05;;;;;;;1999.90;999.90;;;10.80;99.90;;;;;;4994332;28;20201;-70
2023/04/10 07:20:31;;;;;;;1999.90;999.90;;;10.80;99.90;;;;;;4993981;28;20165;-70
2023/04/10 07:22:56;;;;;;;1999.90;999.90;;;10.80;99.90;;;;;;4993473;28;20445;-70
2023/04/10 07:25:22;;;;;;;1999.90;999.90;;;10.90;99.90;;;;;;4993874;28;20444;-71
2023/04/10 07:27:48;;;;;;;1999.90;999.90;;;10.80;99.90;;;;;;4993924;28;20166;-70
2023/04/10 07:30:13;;;;;;;1999.90;999.90;;;10.90;99.90;;;;;;4993833;28;20170;-71
2023/04/10 07:32:40;;;;;;;1999.90;999.90;;;11.00;99.90;;;;;;4993459;28;20189;-71
2023/04/10 07:35:06;;;;;;;1999.90;999.90;;;11.00;99.90;;;;;;4993883;28;20181;-70
2023/04/10 07:37:32;;;;;;;1999.90;999.90;;;11.10;99.90;;;;;;4993746;28;20931;-72
2023/04/10 07:39:58;;;;;;;1999.90;999.90;;;11.20;99.90;;;;;;4993661;28;20401;-72
2023/04/10 07:42:23;;;;;;;1999.90;999.90;;;11.30;99.90;;;;;;4993407;28;20190;-71
2023/04/10 07:44:49;;;;;;;1999.90;999.90;;;11.40;99.90;;;;;;4993564;28;20190;-71
2023/04/10 07:47:15;;;;;;;1999.90;999.90;;;11.60;99.90;;;;;;4993804;28;20177;-71
2023/04/10 07:49:40;;;;;;;1999.90;999.90;;;11.70;99.90;;;;;;4993728;28;20198;-72
2023/04/10 07:52:06;;;;;;;1999.90;999.90;;;12.20;99.90;;;;;;4993262;28;20184;-71
2023/04/10 07:54:33;;;;;;;1999.90;999.90;;;12.00;99.90;;;;;;4993475;28;20178;-71
2023/04/10 07:56:58;;;;;;;1999.90;999.90;;;12.20;99.90;;;;;;4993379;28;20713;-71
2023/04/10 07:59:24;;;;;;;1999.90;999.90;;;12.40;99.90;;;;;;4993253;28;20407;-71
2023/04/10 08:01:49;;;;;;;1999.90;999.90;;;12.40;99.90;;;;;;4993187;28;20167;-71
2023/04/10 08:04:15;;;;;;;1999.90;999.90;;;12.50;99.90;;;;;;4993198;28;20191;-70
2023/04/10 08:06:41;;;;;;;1999.90;999.90;;;12.70;99.90;;;;;;4993144;28;20648;-71
2023/04/10 08:09:06;;;;;;;1999.90;999.90;;;12.80;99.90;;;;;;4993180;28;20172;-72
2023/04/10 08:11:33;;;;;;;1999.90;999.90;;;12.90;99.90;;;;;;4992931;28;20171;-71
2023/04/10 08:14:00;;;;;;;1999.90;999.90;;;12.90;99.90;;;;;;4992948;28;20263;-72
2023/04/10 08:16:29;;;;;;;1999.90;999.90;;;12.90;99.90;;;;;;4992946;28;20458;-71
2023/04/10 08:18:56;;;;;;;1999.90;999.90;;;13.00;99.90;;;;;;4993026;28;20449;-71
2023/04/10 08:21:23;;;;;;;1999.90;999.90;;;13.10;99.90;;;;;;4992577;28;20398;-71
2023/04/10 08:23:50;;;;;;;1999.90;999.90;;;13.20;99.90;;;;;;4992749;28;20454;-72
2023/04/10 08:26:16;;;;;;;1999.90;999.90;;;13.30;99.90;;;;;;4992866;28;20923;-71
2023/04/10 08:28:46;;;;;;;1999.90;999.90;;;13.30;99.90;;;;;;4992747;28;20407;-72
2023/04/10 08:31:12;;;;;;;1999.90;999.90;;;13.30;99.90;;;;;;4991952;28;20429;-71
2023/04/10 08:33:37;;;;;;;1999.90;999.90;;;13.30;99.90;;;;;;4991045;28;20466;-72
2023/04/10 08:36:04;;;;;;;1999.90;999.90;;;13.30;99.90;;;;;;4992722;28;20491;-72
2023/04/10 08:38:30;;;;;;;1999.90;999.90;;;13.40;99.90;;;;;;4992638;28;20171;-70
2023/04/10 08:40:56;;;;;;;1999.90;999.90;;;13.50;99.90;;;;;;4992388;28;20418;-72
2023/04/10 08:43:21;;;;;;;1999.90;999.90;;;13.50;99.90;;;;;;4992668;28;20246;-72
2023/04/10 08:45:47;;;;;;;1999.90;999.90;;;13.60;99.90;;;;;;4992620;28;20425;-71
2023/04/10 08:48:15;;;;;;;1999.90;999.90;;;13.60;99.90;;;;;;4992573;28;20187;-71
2023/04/10 08:50:44;;;;;;;1999.90;999.90;;;13.50;99.90;;;;;;4992546;28;20412;-71
2023/04/10 08:53:14;;;;;;;1999.90;999.90;;;13.50;99.90;;;;;;4992158;28;20859;-72
2023/04/10 08:55:40;;;;;;;1999.90;999.90;;;13.50;99.90;;;;;;4991856;28;20456;-71
2023/04/10 08:58:07;;;;;;;1999.90;999.90;;;13.50;99.90;;;;;;4992501;28;20409;-72
2023/04/10 09:00:37;;;;;;;1999.90;999.90;;;13.50;99.90;;;;;;4992370;28;20497;-71
2023/04/10 09:03:04;;;;;;;1999.90;999.90;;;13.60;99.90;;;;;;4991712;28;20973;-70
2023/04/10 09:05:29;;;;;;;1999.90;999.90;;;13.80;99.90;;;;;;4992354;28;20418;-72
2023/04/10 09:07:55;;;;;;;1999.90;999.90;;;14.10;99.90;;;;;;4992376;28;20784;-72
2023/04/10 09:10:21;;;;;;;1999.90;999.90;;;14.30;99.90;;;;;;4992413;28;20255;-72
2023/04/10 09:12:47;;;;;;;1999.90;999.90;;;14.50;99.90;;;;;;4993876;28;20201;-71
2023/04/10 09:15:13;;;;;;;1999.90;999.90;;;14.60;99.90;;;;;;4996532;28;20852;-72
2023/04/10 09:17:57;;;;;;;1999.90;999.90;;;14.70;99.90;;;;;;4996443;28;20505;-71
2023/04/10 09:20:25;;;;;;;1999.90;999.90;;;15.00;99.90;;;;;;4996376;28;20402;-72
2023/04/10 09:22:50;;;;;;;1999.90;999.90;;;15.20;99.90;;;;;;4995699;28;20959;-72
2023/04/10 09:25:32;;;;;;;1999.90;999.90;;;15.30;99.90;;;;;;4996290;28;20408;-71
2023/04/10 09:28:08;;;;;;;1999.90;999.90;;;15.50;99.90;;;;;;4996257;28;20186;-71
2023/04/10 09:30:41;;;;;;;1999.90;999.90;;;15.50;99.90;;;;;;4996218;28;20405;-71
2023/04/10 09:33:23;;;;;;;1999.90;999.90;;;15.50;99.90;;;;;;4995829;28;20792;-71
2023/04/10 09:35:49;;;;;;;1999.90;999.90;;;15.40;99.90;;;;;;4995794;28;20478;-72
2023/04/10 09:38:16;;;;;;;1999.90;999.90;;;15.50;99.90;;;;;;4996111;28;20490;-72
2023/04/10 09:40:43;;;;;;;1999.90;999.90;;;15.60;99.90;;;;;;4995765;28;20412;-71
2023/04/10 09:43:25;;;;;;;1999.90;999.90;;;15.70;99.90;;;;;;4995510;28;20419;-72
2023/04/10 09:45:53;;;;;;;1999.90;999.90;;;15.90;98.00;;;;;;4995684;28;20481;-72
2023/04/10 09:48:20;;;;;;;1999.90;999.90;;;15.90;97.00;;;;;;4995929;28;20421;-72
2023/04/10 09:50:46;;;;;;;1999.90;999.90;;;16.10;99.70;;;;;;4995690;28;20871;-71
2023/04/10 09:53:15;;;;;;;1999.90;999.90;;;16.50;97.80;;;;;;4995370;28;20444;-71
2023/04/10 09:55:41;;;;;;;1999.90;999.90;;;16.60;96.60;;;;;;4995554;28;20881;-72
2023/04/10 09:58:08;;;;;;;1999.90;999.90;;;16.50;92.70;;;;;;4995561;28;20525;-70
2023/04/10 10:00:42;;;;;;;1999.90;999.90;;;16.40;93.60;;;;;;4995611;28;20412;-70
2023/04/10 10:03:10;;;;;;;1999.90;999.90;;;16.60;96.50;;;;;;4995280;28;20434;-70
2023/04/10 10:05:41;;;;;;;1999.90;999.90;;;16.70;92.40;;;;;;4995525;28;20426;-70
2023/04/10 10:08:11;;;;;;;1999.90;999.90;;;16.80;95.40;;;;;;4995382;28;20406;-70
2023/04/10 10:10:46;;;;;;;1999.90;999.90;;;16.80;88.50;;;;;;4994989;28;20930;-70
2023/04/10 10:13:18;;;;;;;1999.90;999.90;;;16.70;90.30;;;;;;4991008;28;20443;-70
2023/04/10 10:16:09;;;;;;;1999.90;999.90;;;16.70;90.50;;;;;;4991226;28;20455;-70
2023/04/10 10:18:41;;;;;;;1999.90;999.90;;;16.90;93.40;;;;;;4990553;28;20439;-71
2023/04/10 10:21:08;;;;;;;1999.90;999.90;;;17.10;90.00;;;;;;4983507;28;20418;-70
2023/04/10 10:23:36;;;;;;;1999.90;999.90;;;17.30;92.00;;;;;;4990070;28;20459;-70
2023/04/10 10:26:05;;;;;;;1999.90;999.90;;;17.40;90.00;;;;;;4990713;28;20415;-70
2023/04/10 10:28:33;;;;;;;1999.90;999.90;;;17.20;79.10;;;;;;4990955;28;20520;-69
2023/04/10 10:31:01;;;;;;;1999.90;999.90;;;17.20;78.20;;;;;;4991209;28;20429;-69
2023/04/10 10:33:29;;;;;;;1999.90;999.90;;;17.30;77.60;;;;;;4990526;28;20447;-70
2023/04/10 10:36:00;;;;;;;1999.90;999.90;;;17.30;75.30;;;;;;4990325;28;20691;-69
2023/04/10 10:38:27;;;;;;;1999.90;999.90;;;17.20;68.00;;;;;;4991068;28;20420;-70
2023/04/10 10:41:11;;;;;;;1999.90;999.90;;;17.30;76.50;;;;;;4990884;28;20419;-70
2023/04/10 10:43:52;;;;;;;1999.90;999.90;;;17.20;71.50;;;;;;4991226;28;20434;-70
2023/04/10 10:46:48;;;;;;;1999.90;999.90;;;17.20;70.70;;;;;;4990836;28;21058;-71
2023/04/10 10:49:14;;;;;;;1999.90;999.90;;;17.20;68.20;;;;;;4986405;28;21149;-72
2023/04/10 10:51:48;;;;;;;1999.90;999.90;;;17.30;65.20;;;;;;4986090;28;20431;-71
2023/04/10 10:54:34;;;;;;;1999.90;999.90;;;17.20;63.50;;;;;;4989083;28;20443;-71
2023/04/10 10:57:02;;;;;;;1999.90;999.90;;;17.30;66.60;;;;;;4989040;28;20572;-71
2023/04/10 10:59:42;;;;;;;1999.90;999.90;;;17.30;70.90;;;;;;4989106;28;20419;-71
2023/04/10 11:02:16;;;;;;;1999.90;999.90;;;17.50;68.00;;;;;;4985147;28;20412;-71
2023/04/10 11:04:45;;;;;;;1999.90;999.90;;;17.70;65.90;;;;;;4988496;28;20895;-71
2023/04/10 11:07:12;;;;;;;1999.90;999.90;;;17.70;62.50;;;;;;4989223;28;20430;-70
2023/04/10 11:09:46;;;;;;;1999.90;999.90;;;17.70;59.40;;;;;;4988384;28;20841;-71
2023/04/10 11:12:12;;;;;;;1999.90;999.90;;;17.80;65.30;;;;;;4987807;28;20910;-70
2023/04/10 11:14:38;;;;;;;1999.90;999.90;;;17.90;58.10;;;;;;4988660;28;20440;-71
2023/04/10 11:17:04;;;;;;;1999.90;999.90;;;17.90;54.00;;;;;;4991249;28;20239;-71
2023/04/10 11:19:58;;;;;;;1999.90;999.90;;;17.80;53.40;;;;;;5009468;28;20462;-70
2023/04/10 11:22:24;;;;;;;1999.90;999.90;;;17.80;54.20;;;;;;5008522;28;20303;-71
2023/04/10 11:25:09;;;;;;;1999.90;999.90;;;17.90;58.20;;;;;;5010115;28;20499;-70
2023/04/10 11:27:44;;;;;;;1999.90;999.90;;;17.90;52.90;;;;;;5000027;28;20930;-70
2023/04/10 11:30:33;;;;;;;1999.90;999.90;;;17.80;52.70;;;;;;5003573;28;20404;-70
2023/04/10 11:33:00;;;;;;;1999.90;999.90;;;17.70;48.30;;;;;;5010768;28;20937;-70
2023/04/10 11:35:30;;;;;;;1999.90;999.90;;;17.60;49.50;;;;;;5003228;28;20920;-71
2023/04/10 11:38:15;;;;;;;1999.90;999.90;;;17.70;52.10;;;;;;5003659;28;20474;-71
2023/04/10 11:41:01;;;;;;;1999.90;999.90;;;17.80;49.00;;;;;;5011413;28;20425;-70
2023/04/10 11:43:27;;;;;;;1999.90;999.90;;;17.80;47.20;;;;;;5003192;28;20585;-70
2023/04/10 11:46:04;;;;;;;1999.90;999.90;;;17.80;47.70;;;;;;5011416;28;20401;-71
2023/04/10 11:48:30;;;;;;;1999.90;999.90;;;17.80;47.60;;;;;;5011479;28;20400;-71
2023/04/10 11:50:56;;;;;;;1999.90;999.90;;;17.80;45.30;;;;;;5010374;28;20901;-70
2023/04/10 11:53:22;;;;;;;1999.90;999.90;;;18.00;52.10;;;;;;4998557;28;20494;-70
2023/04/10 11:55:48;;;;;;;1999.90;999.90;;;18.00;46.30;;;;;;5011493;28;20202;-70
2023/04/10 11:58:26;;;;;;;1999.90;999.90;;;18.10;44.60;;;;;;5011417;28;20419;-71
2023/04/10 12:01:13;;;;;;;1999.90;999.90;;;18.20;49.80;;;;;;5002830;28;20170;-72
2023/04/10 12:03:43;;;;;;;1999.90;999.90;;;18.40;49.50;;;;;;5010813;28;20432;-71
2023/04/10 12:06:13;;;;;;;1999.90;999.90;;;18.60;43.10;;;;;;5011310;28;20414;-71
2023/04/10 12:08:45;;;;;;;1999.90;999.90;;;18.60;47.30;;;;;;5011005;28;20779;-70